sensor_id;sensor_type;location;lat;lon;timestamp;P1;durP1;ratioP1;P2;durP2;ratioP2
10416;SDS011;62605;49.432;8.680;2023-07-31T05:38:59;6.05;;;1.88;;
10416;SDS011;62605;49.432;8.680;2023-07-31T05:41:31;3.35;;;1.58;;
10416;SDS011;62605;49.432;8.680;2023-07-31T05:43:58;1.25;;;1.15;;
10416;SDS011;62605;49.432;8.680;2023-07-31T05:46:25;3.05;;;1.67;;
10416;SDS011;62605;49.432;8.680;2023-07-31T05:52:15;1.30;;;1.20;;
10416;SDS011;62605;49.432;8.680;2023-07-31T05:54:44;3.78;;;1.55;;
10416;SDS011;62605;49.432;8.680;2023-07-31T05:57:11;1.77;;;1.38;;
10416;SDS011;62605;49.432;8.680;2023-07-31T05:59:38;1.83;;;1.27;;
10416;SDS011;62605;49.432;8.680;2023-07-31T06:02:05;2.40;;;1.35;;
10416;SDS011;62605;49.432;8.680;2023-07-31T06:04:32;3.13;;;1.35;;
10416;SDS011;62605;49.432;8.680;2023-07-31T06:06:59;4.85;;;1.60;;
10416;SDS011;62605;49.432;8.680;2023-07-31T06:09:26;2.20;;;1.40;;
10416;SDS011;62605;49.432;8.680;2023-07-31T06:11:55;2.30;;;1.40;;
10416;SDS011;62605;49.432;8.680;2023-07-31T06:14:22;3.83;;;1.30;;
10416;SDS011;62605;49.432;8.680;2023-07-31T06:16:49;2.65;;;1.27;;
10416;SDS011;62605;49.432;8.680;2023-07-31T06:19:16;1.15;;;1.00;;
10416;SDS011;62605;49.432;8.680;2023-07-31T06:21:43;3.28;;;1.25;;
10416;SDS011;62605;49.432;8.680;2023-07-31T06:24:11;3.58;;;1.50;;
10416;SDS011;62605;49.432;8.680;2023-07-31T06:26:38;2.33;;;1.30;;
10416;SDS011;62605;49.432;8.680;2023-07-31T06:29:06;1.77;;;1.40;;
10416;SDS011;62605;49.432;8.680;2023-07-31T06:31:33;1.58;;;1.15;;
10416;SDS011;62605;49.432;8.680;2023-07-31T06:34:00;4.68;;;1.55;;
10416;SDS011;62605;49.432;8.680;2023-07-31T06:36:27;5.43;;;1.67;;
10416;SDS011;62605;49.432;8.680;2023-07-31T06:38:54;3.65;;;2.53;;
10416;SDS011;62605;49.432;8.680;2023-07-31T06:41:21;2.45;;;1.50;;
10416;SDS011;62605;49.432;8.680;2023-07-31T06:43:48;1.92;;;1.42;;
10416;SDS011;62605;49.432;8.680;2023-07-31T06:46:16;3.85;;;1.63;;
10416;SDS011;62605;49.432;8.680;2023-07-31T06:48:44;2.55;;;1.50;;
10416;SDS011;62605;49.432;8.680;2023-07-31T06:51:11;3.90;;;1.42;;
10416;SDS011;62605;49.432;8.680;2023-07-31T06:53:37;3.28;;;1.48;;
10416;SDS011;62605;49.432;8.680;2023-07-31T06:56:04;3.15;;;1.40;;
10416;SDS011;62605;49.432;8.680;2023-07-31T06:58:31;8.27;;;2.00;;
10416;SDS011;62605;49.432;8.680;2023-07-31T07:00:59;4.65;;;1.67;;
10416;SDS011;62605;49.432;8.680;2023-07-31T07:03:27;6.05;;;1.60;;
10416;SDS011;62605;49.432;8.680;2023-07-31T07:05:54;1.98;;;1.33;;
10416;SDS011;62605;49.432;8.680;2023-07-31T07:08:21;2.20;;;1.52;;
10416;SDS011;62605;49.432;8.680;2023-07-31T07:10:48;3.60;;;1.50;;
10416;SDS011;62605;49.432;8.680;2023-07-31T07:13:15;3.47;;;1.70;;
10416;SDS011;62605;49.432;8.680;2023-07-31T07:15:43;2.67;;;1.42;;
10416;SDS011;62605;49.432;8.680;2023-07-31T07:18:13;3.30;;;1.40;;
10416;SDS011;62605;49.432;8.680;2023-07-31T07:20:45;2.80;;;1.55;;
10416;SDS011;62605;49.432;8.680;2023-07-31T07:23:13;3.33;;;1.35;;
10416;SDS011;62605;49.432;8.680;2023-07-31T07:25:40;2.58;;;1.30;;
10416;SDS011;62605;49.432;8.680;2023-07-31T07:28:08;2.92;;;1.50;;
10416;SDS011;62605;49.432;8.680;2023-07-31T07:30:35;3.03;;;1.63;;
10416;SDS011;62605;49.432;8.680;2023-07-31T07:33:02;5.88;;;1.70;;
10416;SDS011;62605;49.432;8.680;2023-07-31T07:35:29;4.13;;;1.45;;
10416;SDS011;62605;49.432;8.680;2023-07-31T07:37:58;5.97;;;1.67;;
10416;SDS011;62605;49.432;8.680;2023-07-31T07:40:25;5.60;;;2.13;;
10416;SDS011;62605;49.432;8.680;2023-07-31T07:42:52;2.28;;;1.33;;
10416;SDS011;62605;49.432;8.680;2023-07-31T07:45:19;1.83;;;1.30;;
10416;SDS011;62605;49.432;8.680;2023-07-31T07:47:47;1.48;;;1.38;;
10416;SDS011;62605;49.432;8.680;2023-07-31T07:50:14;5.03;;;1.55;;
10416;SDS011;62605;49.432;8.680;2023-07-31T07:52:40;5.70;;;1.48;;
10416;SDS011;62605;49.432;8.680;2023-07-31T07:55:09;2.15;;;1.40;;
10416;SDS011;62605;49.432;8.680;2023-07-31T07:57:36;3.70;;;1.70;;
10416;SDS011;62605;49.432;8.680;2023-07-31T08:00:04;2.60;;;1.63;;
10416;SDS011;62605;49.432;8.680;2023-07-31T08:02:35;1.85;;;1.30;;
10416;SDS011;62605;49.432;8.680;2023-07-31T08:05:02;4.20;;;1.55;;
10416;SDS011;62605;49.432;8.680;2023-07-31T08:07:30;2.90;;;1.25;;
10416;SDS011;62605;49.432;8.680;2023-07-31T08:09:57;2.92;;;1.48;;
10416;SDS011;62605;49.432;8.680;2023-07-31T08:12:25;8.82;;;1.83;;
10416;SDS011;62605;49.432;8.680;2023-07-31T08:14:52;2.05;;;1.63;;
10416;SDS011;62605;49.432;8.680;2023-07-31T08:17:19;3.53;;;1.52;;
10416;SDS011;62605;49.432;8.680;2023-07-31T08:19:46;3.05;;;1.60;;
10416;SDS011;62605;49.432;8.680;2023-07-31T08:22:13;2.53;;;1.60;;
10416;SDS011;62605;49.432;8.680;2023-07-31T08:24:41;3.97;;;1.55;;
10416;SDS011;62605;49.432;8.680;2023-07-31T08:27:08;1.65;;;1.15;;
10416;SDS011;62605;49.432;8.680;2023-07-31T08:29:36;7.57;;;1.85;;
10416;SDS011;62605;49.432;8.680;2023-07-31T08:32:04;2.95;;;1.65;;
10416;SDS011;62605;49.432;8.680;2023-07-31T08:34:31;2.20;;;1.60;;
10416;SDS011;62605;49.432;8.680;2023-07-31T08:36:58;2.17;;;1.27;;
10416;SDS011;62605;49.432;8.680;2023-07-31T08:39:25;3.38;;;1.75;;
10416;SDS011;62605;49.432;8.680;2023-07-31T08:41:57;2.22;;;1.33;;
10416;SDS011;62605;49.432;8.680;2023-07-31T08:44:25;2.80;;;1.20;;
10416;SDS011;62605;49.432;8.680;2023-07-31T08:46:53;5.18;;;1.40;;
10416;SDS011;62605;49.432;8.680;2023-07-31T08:49:20;2.90;;;1.60;;
10416;SDS011;62605;49.432;8.680;2023-07-31T08:51:49;5.78;;;1.85;;
10416;SDS011;62605;49.432;8.680;2023-07-31T08:54:16;2.58;;;1.50;;
10416;SDS011;62605;49.432;8.680;2023-07-31T08:56:43;3.78;;;1.67;;
10416;SDS011;62605;49.432;8.680;2023-07-31T08:59:12;2.38;;;1.58;;
10416;SDS011;62605;49.432;8.680;2023-07-31T09:01:43;4.38;;;1.40;;
10416;SDS011;62605;49.432;8.680;2023-07-31T09:04:17;7.65;;;1.75;;
10416;SDS011;62605;49.432;8.680;2023-07-31T09:06:47;1.90;;;1.38;;
10416;SDS011;62605;49.432;8.680;2023-07-31T09:09:15;4.03;;;1.40;;
10416;SDS011;62605;49.432;8.680;2023-07-31T09:11:42;5.07;;;1.63;;
10416;SDS011;62605;49.432;8.680;2023-07-31T09:14:09;1.35;;;1.15;;
10416;SDS011;62605;49.432;8.680;2023-07-31T09:16:41;4.55;;;1.77;;
10416;SDS011;62605;49.432;8.680;2023-07-31T09:19:26;3.22;;;1.85;;
10416;SDS011;62605;49.432;8.680;2023-07-31T09:21:53;2.33;;;1.50;;
10416;SDS011;62605;49.432;8.680;2023-07-31T09:24:30;3.47;;;1.40;;
10416;SDS011;62605;49.432;8.680;2023-07-31T09:26:58;2.65;;;1.70;;
10416;SDS011;62605;49.432;8.680;2023-07-31T09:29:27;2.28;;;1.60;;
10416;SDS011;62605;49.432;8.680;2023-07-31T09:31:55;2.13;;;1.35;;
10416;SDS011;62605;49.432;8.680;2023-07-31T09:34:28;3.95;;;1.45;;
10416;SDS011;62605;49.432;8.680;2023-07-31T09:36:57;4.38;;;1.50;;
10416;SDS011;62605;49.432;8.680;2023-07-31T09:39:27;2.22;;;1.63;;
10416;SDS011;62605;49.432;8.680;2023-07-31T09:41:56;3.97;;;1.55;;
10416;SDS011;62605;49.432;8.680;2023-07-31T09:44:32;2.58;;;1.80;;
10416;SDS011;62605;49.432;8.680;2023-07-31T09:47:05;3.33;;;1.92;;
10416;SDS011;62605;49.432;8.680;2023-07-31T09:49:34;3.40;;;1.60;;
10416;SDS011;62605;49.432;8.680;2023-07-31T09:52:00;2.50;;;1.58;;
10416;SDS011;62605;49.432;8.680;2023-07-31T09:54:29;3.13;;;2.03;;
10416;SDS011;62605;49.432;8.680;2023-07-31T09:56:56;3.05;;;1.95;;
10416;SDS011;62605;49.432;8.680;2023-07-31T09:59:25;2.83;;;1.80;;
10416;SDS011;62605;49.432;8.680;2023-07-31T10:01:52;2.55;;;1.45;;
10416;SDS011;62605;49.432;8.680;2023-07-31T10:04:21;2.95;;;1.88;;
10416;SDS011;62605;49.432;8.680;2023-07-31T10:06:55;5.22;;;1.83;;
10416;SDS011;62605;49.432;8.680;2023-07-31T10:09:22;5.90;;;1.73;;
10416;SDS011;62605;49.432;8.680;2023-07-31T10:11:56;3.53;;;1.67;;
10416;SDS011;62605;49.432;8.680;2023-07-31T10:14:26;2.92;;;1.60;;
10416;SDS011;62605;49.432;8.680;2023-07-31T10:16:54;5.10;;;1.88;;
10416;SDS011;62605;49.432;8.680;2023-07-31T10:19:22;3.10;;;1.60;;
10416;SDS011;62605;49.432;8.680;2023-07-31T10:21:50;3.30;;;1.55;;
10416;SDS011;62605;49.432;8.680;2023-07-31T10:24:18;2.22;;;1.52;;
10416;SDS011;62605;49.432;8.680;2023-07-31T10:26:46;4.07;;;1.83;;
10416;SDS011;62605;49.432;8.680;2023-07-31T10:29:15;1.83;;;1.50;;
10416;SDS011;62605;49.432;8.680;2023-07-31T10:31:43;4.72;;;2.08;;
10416;SDS011;62605;49.432;8.680;2023-07-31T10:34:12;3.50;;;1.95;;
10416;SDS011;62605;49.432;8.680;2023-07-31T10:36:40;4.47;;;1.88;;
10416;SDS011;62605;49.432;8.680;2023-07-31T10:39:14;3.63;;;1.90;;
10416;SDS011;62605;49.432;8.680;2023-07-31T10:42:11;3.42;;;1.60;;
10416;SDS011;62605;49.432;8.680;2023-07-31T10:44:43;4.80;;;2.10;;
10416;SDS011;62605;49.432;8.680;2023-07-31T10:47:14;2.60;;;1.52;;
10416;SDS011;62605;49.432;8.680;2023-07-31T10:49:44;2.33;;;1.70;;
10416;SDS011;62605;49.432;8.680;2023-07-31T10:52:12;3.72;;;2.30;;
10416;SDS011;62605;49.432;8.680;2023-07-31T10:54:41;3.22;;;1.83;;
10416;SDS011;62605;49.432;8.680;2023-07-31T10:57:18;5.75;;;2.13;;
10416;SDS011;62605;49.432;8.680;2023-07-31T10:59:46;2.75;;;1.92;;
10416;SDS011;62605;49.432;8.680;2023-07-31T11:02:23;3.75;;;1.80;;
10416;SDS011;62605;49.432;8.680;2023-07-31T11:05:07;5.70;;;1.80;;
10416;SDS011;62605;49.432;8.680;2023-07-31T11:07:47;3.17;;;1.63;;
10416;SDS011;62605;49.432;8.680;2023-07-31T11:10:17;5.65;;;2.47;;
10416;SDS011;62605;49.432;8.680;2023-07-31T11:12:45;2.67;;;1.77;;
10416;SDS011;62605;49.432;8.680;2023-07-31T11:15:12;4.10;;;2.17;;
10416;SDS011;62605;49.432;8.680;2023-07-31T11:17:40;2.85;;;1.67;;
10416;SDS011;62605;49.432;8.680;2023-07-31T11:20:07;2.97;;;1.75;;
10416;SDS011;62605;49.432;8.680;2023-07-31T11:22:34;5.25;;;1.88;;
10416;SDS011;62605;49.432;8.680;2023-07-31T11:25:02;7.75;;;2.42;;
10416;SDS011;62605;49.432;8.680;2023-07-31T11:27:38;2.97;;;1.50;;
10416;SDS011;62605;49.432;8.680;2023-07-31T11:30:06;3.65;;;2.00;;
10416;SDS011;62605;49.432;8.680;2023-07-31T11:32:33;2.47;;;1.80;;
10416;SDS011;62605;49.432;8.680;2023-07-31T11:35:02;3.45;;;1.88;;
10416;SDS011;62605;49.432;8.680;2023-07-31T11:37:38;7.15;;;2.20;;
10416;SDS011;62605;49.432;8.680;2023-07-31T11:40:06;5.15;;;2.03;;
10416;SDS011;62605;49.432;8.680;2023-07-31T11:42:35;5.97;;;2.13;;
10416;SDS011;62605;49.432;8.680;2023-07-31T11:45:03;4.38;;;2.03;;
10416;SDS011;62605;49.432;8.680;2023-07-31T11:47:32;2.83;;;1.50;;
10416;SDS011;62605;49.432;8.680;2023-07-31T11:50:00;3.50;;;1.90;;
10416;SDS011;62605;49.432;8.680;2023-07-31T11:52:28;3.17;;;1.75;;
10416;SDS011;62605;49.432;8.680;2023-07-31T11:54:58;3.55;;;1.90;;
10416;SDS011;62605;49.432;8.680;2023-07-31T11:57:26;2.88;;;1.55;;
10416;SDS011;62605;49.432;8.680;2023-07-31T11:59:56;2.03;;;1.52;;
10416;SDS011;62605;49.432;8.680;2023-07-31T12:02:24;2.40;;;1.45;;
10416;SDS011;62605;49.432;8.680;2023-07-31T12:04:51;3.72;;;2.10;;
10416;SDS011;62605;49.432;8.680;2023-07-31T12:07:18;3.88;;;1.95;;
10416;SDS011;62605;49.432;8.680;2023-07-31T12:09:52;3.13;;;1.65;;
10416;SDS011;62605;49.432;8.680;2023-07-31T12:12:20;5.68;;;1.98;;
10416;SDS011;62605;49.432;8.680;2023-07-31T12:14:47;3.00;;;1.83;;
10416;SDS011;62605;49.432;8.680;2023-07-31T12:17:17;3.72;;;1.77;;
10416;SDS011;62605;49.432;8.680;2023-07-31T12:19:48;2.33;;;1.60;;
10416;SDS011;62605;49.432;8.680;2023-07-31T12:22:15;4.53;;;1.70;;
10416;SDS011;62605;49.432;8.680;2023-07-31T12:24:43;7.45;;;1.70;;
10416;SDS011;62605;49.432;8.680;2023-07-31T12:27:11;4.32;;;1.77;;
10416;SDS011;62605;49.432;8.680;2023-07-31T12:29:39;3.20;;;1.48;;
10416;SDS011;62605;49.432;8.680;2023-07-31T12:32:22;3.67;;;1.52;;
10416;SDS011;62605;49.432;8.680;2023-07-31T12:34:50;5.28;;;2.30;;
10416;SDS011;62605;49.432;8.680;2023-07-31T12:37:17;5.00;;;2.13;;
10416;SDS011;62605;49.432;8.680;2023-07-31T12:39:45;3.50;;;2.03;;
10416;SDS011;62605;49.432;8.680;2023-07-31T12:42:12;2.28;;;1.85;;
10416;SDS011;62605;49.432;8.680;2023-07-31T12:44:39;2.35;;;1.65;;
10416;SDS011;62605;49.432;8.680;2023-07-31T12:47:06;3.42;;;1.58;;
10416;SDS011;62605;49.432;8.680;2023-07-31T12:49:34;4.70;;;1.60;;
10416;SDS011;62605;49.432;8.680;2023-07-31T12:52:01;4.38;;;1.85;;
10416;SDS011;62605;49.432;8.680;2023-07-31T12:54:29;2.88;;;1.90;;
10416;SDS011;62605;49.432;8.680;2023-07-31T12:56:56;3.22;;;1.98;;
10416;SDS011;62605;49.432;8.680;2023-07-31T12:59:23;2.83;;;1.42;;
10416;SDS011;62605;49.432;8.680;2023-07-31T13:01:50;3.63;;;1.30;;
10416;SDS011;62605;49.432;8.680;2023-07-31T13:04:17;3.25;;;1.50;;
10416;SDS011;62605;49.432;8.680;2023-07-31T13:06:45;3.33;;;1.65;;
10416;SDS011;62605;49.432;8.680;2023-07-31T13:09:12;5.57;;;1.67;;
10416;SDS011;62605;49.432;8.680;2023-07-31T13:11:42;3.55;;;1.80;;
10416;SDS011;62605;49.432;8.680;2023-07-31T13:14:09;3.67;;;1.95;;
10416;SDS011;62605;49.432;8.680;2023-07-31T13:16:37;3.30;;;1.63;;
10416;SDS011;62605;49.432;8.680;2023-07-31T13:19:04;1.92;;;1.30;;
10416;SDS011;62605;49.432;8.680;2023-07-31T13:21:31;5.45;;;1.90;;
10416;SDS011;62605;49.432;8.680;2023-07-31T13:24:02;3.78;;;1.75;;
10416;SDS011;62605;49.432;8.680;2023-07-31T13:26:29;2.28;;;1.40;;
10416;SDS011;62605;49.432;8.680;2023-07-31T13:28:56;2.80;;;1.52;;
10416;SDS011;62605;49.432;8.680;2023-07-31T13:31:23;2.33;;;1.60;;
10416;SDS011;62605;49.432;8.680;2023-07-31T13:33:50;2.72;;;1.92;;
10416;SDS011;62605;49.432;8.680;2023-07-31T13:36:17;4.72;;;2.10;;
10416;SDS011;62605;49.432;8.680;2023-07-31T13:38:44;4.70;;;1.80;;
10416;SDS011;62605;49.432;8.680;2023-07-31T13:41:12;4.75;;;1.83;;
10416;SDS011;62605;49.432;8.680;2023-07-31T13:43:39;2.60;;;1.80;;
10416;SDS011;62605;49.432;8.680;2023-07-31T13:46:06;2.35;;;1.73;;
10416;SDS011;62605;49.432;8.680;2023-07-31T13:48:35;4.70;;;1.67;;
10416;SDS011;62605;49.432;8.680;2023-07-31T13:51:03;3.53;;;2.17;;
10416;SDS011;62605;49.432;8.680;2023-07-31T13:53:30;2.47;;;1.27;;
10416;SDS011;62605;49.432;8.680;2023-07-31T13:55:57;3.63;;;1.65;;
10416;SDS011;62605;49.432;8.680;2023-07-31T13:58:26;3.28;;;1.60;;
10416;SDS011;62605;49.432;8.680;2023-07-31T14:00:53;3.53;;;1.83;;
10416;SDS011;62605;49.432;8.680;2023-07-31T14:03:20;4.47;;;1.98;;
10416;SDS011;62605;49.432;8.680;2023-07-31T14:05:47;3.53;;;1.73;;
10416;SDS011;62605;49.432;8.680;2023-07-31T14:08:14;3.95;;;1.88;;
10416;SDS011;62605;49.432;8.680;2023-07-31T14:10:41;2.83;;;1.60;;
10416;SDS011;62605;49.432;8.680;2023-07-31T14:13:08;4.10;;;1.88;;
10416;SDS011;62605;49.432;8.680;2023-07-31T14:15:36;4.95;;;1.85;;
10416;SDS011;62605;49.432;8.680;2023-07-31T14:18:03;3.65;;;1.83;;
10416;SDS011;62605;49.432;8.680;2023-07-31T14:20:32;3.47;;;1.83;;
10416;SDS011;62605;49.432;8.680;2023-07-31T14:22:59;3.13;;;1.90;;
10416;SDS011;62605;49.432;8.680;2023-07-31T14:25:26;4.07;;;1.92;;
10416;SDS011;62605;49.432;8.680;2023-07-31T14:27:53;2.25;;;1.55;;
10416;SDS011;62605;49.432;8.680;2023-07-31T14:30:21;3.20;;;1.95;;
10416;SDS011;62605;49.432;8.680;2023-07-31T14:32:49;2.05;;;1.80;;
10416;SDS011;62605;49.432;8.680;2023-07-31T14:35:16;3.22;;;1.35;;
10416;SDS011;62605;49.432;8.680;2023-07-31T14:37:44;2.85;;;1.67;;
10416;SDS011;62605;49.432;8.680;2023-07-31T14:40:12;3.53;;;1.80;;
10416;SDS011;62605;49.432;8.680;2023-07-31T14:42:39;2.50;;;1.52;;
10416;SDS011;62605;49.432;8.680;2023-07-31T14:45:07;4.07;;;2.40;;
10416;SDS011;62605;49.432;8.680;2023-07-31T14:47:35;2.70;;;1.98;;
10416;SDS011;62605;49.432;8.680;2023-07-31T14:50:04;3.22;;;1.85;;
10416;SDS011;62605;49.432;8.680;2023-07-31T14:52:32;4.88;;;1.90;;
10416;SDS011;62605;49.432;8.680;2023-07-31T14:54:59;5.85;;;1.80;;
10416;SDS011;62605;49.432;8.680;2023-07-31T14:57:26;2.55;;;1.77;;
10416;SDS011;62605;49.432;8.680;2023-07-31T14:59:53;4.18;;;1.73;;
10416;SDS011;62605;49.432;8.680;2023-07-31T15:02:20;2.15;;;1.52;;
10416;SDS011;62605;49.432;8.680;2023-07-31T15:04:47;2.17;;;1.77;;
10416;SDS011;62605;49.432;8.680;2023-07-31T15:07:16;3.33;;;1.42;;
10416;SDS011;62605;49.432;8.680;2023-07-31T15:09:43;2.92;;;1.75;;
10416;SDS011;62605;49.432;8.680;2023-07-31T15:12:10;3.30;;;1.48;;
10416;SDS011;62605;49.432;8.680;2023-07-31T15:14:37;1.85;;;1.63;;
10416;SDS011;62605;49.432;8.680;2023-07-31T15:17:05;1.88;;;1.67;;
10416;SDS011;62605;49.432;8.680;2023-07-31T15:19:32;1.60;;;1.48;;
10416;SDS011;62605;49.432;8.680;2023-07-31T15:22:01;2.40;;;1.73;;
10416;SDS011;62605;49.432;8.680;2023-07-31T15:24:30;2.80;;;1.77;;
10416;SDS011;62605;49.432;8.680;2023-07-31T15:26:58;3.75;;;1.85;;
10416;SDS011;62605;49.432;8.680;2023-07-31T15:29:27;5.10;;;2.20;;
10416;SDS011;62605;49.432;8.680;2023-07-31T15:31:54;4.65;;;1.80;;
10416;SDS011;62605;49.432;8.680;2023-07-31T15:34:21;3.03;;;2.00;;
10416;SDS011;62605;49.432;8.680;2023-07-31T15:36:49;3.13;;;1.83;;
10416;SDS011;62605;49.432;8.680;2023-07-31T15:39:16;2.20;;;1.67;;
10416;SDS011;62605;49.432;8.680;2023-07-31T15:41:45;3.08;;;1.52;;
10416;SDS011;62605;49.432;8.680;2023-07-31T15:44:12;3.58;;;1.90;;
10416;SDS011;62605;49.432;8.680;2023-07-31T15:46:39;2.65;;;1.80;;
10416;SDS011;62605;49.432;8.680;2023-07-31T15:49:06;4.72;;;1.98;;
10416;SDS011;62605;49.432;8.680;2023-07-31T15:51:33;3.78;;;1.92;;
10416;SDS011;62605;49.432;8.680;2023-07-31T15:54:00;4.05;;;2.00;;
10416;SDS011;62605;49.432;8.680;2023-07-31T15:56:27;3.85;;;2.40;;
10416;SDS011;62605;49.432;8.680;2023-07-31T15:58:56;2.63;;;1.88;;
10416;SDS011;62605;49.432;8.680;2023-07-31T16:01:23;3.85;;;2.10;;
10416;SDS011;62605;49.432;8.680;2023-07-31T16:03:50;2.80;;;1.95;;
10416;SDS011;62605;49.432;8.680;2023-07-31T16:06:18;4.88;;;2.08;;
10416;SDS011;62605;49.432;8.680;2023-07-31T16:08:45;2.97;;;1.75;;
10416;SDS011;62605;49.432;8.680;2023-07-31T16:11:12;3.25;;;2.25;;
10416;SDS011;62605;49.432;8.680;2023-07-31T16:13:39;2.17;;;1.67;;
10416;SDS011;62605;49.432;8.680;2023-07-31T16:16:07;1.50;;;1.40;;
10416;SDS011;62605;49.432;8.680;2023-07-31T16:18:36;2.92;;;1.83;;
10416;SDS011;62605;49.432;8.680;2023-07-31T16:21:03;2.22;;;1.70;;
10416;SDS011;62605;49.432;8.680;2023-07-31T16:23:30;2.50;;;1.98;;
10416;SDS011;62605;49.432;8.680;2023-07-31T16:25:57;2.55;;;2.03;;
10416;SDS011;62605;49.432;8.680;2023-07-31T16:28:24;2.45;;;1.80;;
10416;SDS011;62605;49.432;8.680;2023-07-31T16:30:51;1.50;;;1.40;;
10416;SDS011;62605;49.432;8.680;2023-07-31T16:33:19;3.65;;;2.05;;
10416;SDS011;62605;49.432;8.680;2023-07-31T16:35:46;2.88;;;1.98;;
10416;SDS011;62605;49.432;8.680;2023-07-31T16:38:13;5.97;;;1.88;;
10416;SDS011;62605;49.432;8.680;2023-07-31T16:40:40;3.40;;;1.85;;
10416;SDS011;62605;49.432;8.680;2023-07-31T16:43:07;3.75;;;2.00;;
10416;SDS011;62605;49.432;8.680;2023-07-31T16:45:34;3.60;;;1.83;;
10416;SDS011;62605;49.432;8.680;2023-07-31T16:48:01;2.38;;;1.55;;
10416;SDS011;62605;49.432;8.680;2023-07-31T16:50:30;5.57;;;1.92;;
10416;SDS011;62605;49.432;8.680;2023-07-31T16:52:57;2.17;;;1.52;;
10416;SDS011;62605;49.432;8.680;2023-07-31T16:55:24;6.15;;;2.17;;
10416;SDS011;62605;49.432;8.680;2023-07-31T16:57:51;4.55;;;1.67;;
10416;SDS011;62605;49.432;8.680;2023-07-31T17:00:20;1.80;;;1.70;;
10416;SDS011;62605;49.432;8.680;2023-07-31T17:02:47;2.58;;;1.73;;
10416;SDS011;62605;49.432;8.680;2023-07-31T17:05:14;6.30;;;2.00;;
10416;SDS011;62605;49.432;8.680;2023-07-31T17:07:43;4.82;;;2.03;;
10416;SDS011;62605;49.432;8.680;2023-07-31T17:10:10;2.63;;;1.90;;
10416;SDS011;62605;49.432;8.680;2023-07-31T17:12:37;2.65;;;2.03;;
10416;SDS011;62605;49.432;8.680;2023-07-31T17:15:07;2.88;;;2.05;;
10416;SDS011;62605;49.432;8.680;2023-07-31T17:17:41;2.95;;;1.95;;
10416;SDS011;62605;49.432;8.680;2023-07-31T17:20:11;8.32;;;2.50;;
10416;SDS011;62605;49.432;8.680;2023-07-31T17:22:38;4.15;;;2.00;;
10416;SDS011;62605;49.432;8.680;2023-07-31T17:25:07;3.33;;;2.08;;
10416;SDS011;62605;49.432;8.680;2023-07-31T17:27:34;4.72;;;2.58;;
10416;SDS011;62605;49.432;8.680;2023-07-31T17:30:01;2.25;;;1.83;;
10416;SDS011;62605;49.432;8.680;2023-07-31T17:32:29;2.85;;;2.00;;
10416;SDS011;62605;49.432;8.680;2023-07-31T17:34:56;2.67;;;1.80;;
10416;SDS011;62605;49.432;8.680;2023-07-31T17:37:23;2.42;;;2.15;;
10416;SDS011;62605;49.432;8.680;2023-07-31T17:39:50;3.25;;;1.83;;
10416;SDS011;62605;49.432;8.680;2023-07-31T17:42:18;4.25;;;2.38;;
10416;SDS011;62605;49.432;8.680;2023-07-31T17:44:45;3.45;;;2.15;;
10416;SDS011;62605;49.432;8.680;2023-07-31T17:47:12;4.35;;;2.22;;
10416;SDS011;62605;49.432;8.680;2023-07-31T17:49:39;4.30;;;2.25;;
10416;SDS011;62605;49.432;8.680;2023-07-31T17:52:06;4.00;;;2.17;;
10416;SDS011;62605;49.432;8.680;2023-07-31T17:54:34;4.90;;;2.60;;
10416;SDS011;62605;49.432;8.680;2023-07-31T17:57:01;5.93;;;2.33;;
10416;SDS011;62605;49.432;8.680;2023-07-31T17:59:30;8.30;;;2.45;;
10416;SDS011;62605;49.432;8.680;2023-07-31T18:01:57;3.40;;;2.00;;
10416;SDS011;62605;49.432;8.680;2023-07-31T18:04:24;4.70;;;2.05;;
10416;SDS011;62605;49.432;8.680;2023-07-31T18:06:51;3.80;;;2.47;;
10416;SDS011;62605;49.432;8.680;2023-07-31T18:09:19;4.05;;;2.30;;
10416;SDS011;62605;49.432;8.680;2023-07-31T18:11:46;6.05;;;2.85;;
10416;SDS011;62605;49.432;8.680;2023-07-31T18:14:12;3.30;;;2.50;;
10416;SDS011;62605;49.432;8.680;2023-07-31T18:16:41;3.67;;;2.42;;
10416;SDS011;62605;49.432;8.680;2023-07-31T18:19:08;4.43;;;2.22;;
10416;SDS011;62605;49.432;8.680;2023-07-31T18:21:35;3.35;;;2.25;;
10416;SDS011;62605;49.432;8.680;2023-07-31T18:24:02;3.55;;;2.13;;
10416;SDS011;62605;49.432;8.680;2023-07-31T18:26:29;2.85;;;2.35;;
10416;SDS011;62605;49.432;8.680;2023-07-31T18:28:56;4.50;;;2.35;;
10416;SDS011;62605;49.432;8.680;2023-07-31T18:31:23;5.38;;;2.35;;
10416;SDS011;62605;49.432;8.680;2023-07-31T18:33:51;3.70;;;2.30;;
10416;SDS011;62605;49.432;8.680;2023-07-31T18:36:18;5.13;;;2.50;;
10416;SDS011;62605;49.432;8.680;2023-07-31T18:38:45;3.72;;;2.65;;
10416;SDS011;62605;49.432;8.680;2023-07-31T18:41:12;3.85;;;2.63;;
10416;SDS011;62605;49.432;8.680;2023-07-31T18:43:39;4.30;;;2.55;;
10416;SDS011;62605;49.432;8.680;2023-07-31T18:46:06;4.72;;;2.28;;
10416;SDS011;62605;49.432;8.680;2023-07-31T18:48:33;4.22;;;2.92;;
10416;SDS011;62605;49.432;8.680;2023-07-31T18:51:02;3.70;;;2.10;;
10416;SDS011;62605;49.432;8.680;2023-07-31T18:53:29;3.30;;;2.17;;
10416;SDS011;62605;49.432;8.680;2023-07-31T18:55:56;4.60;;;1.83;;
10416;SDS011;62605;49.432;8.680;2023-07-31T18:58:23;5.20;;;2.85;;
10416;SDS011;62605;49.432;8.680;2023-07-31T19:00:50;2.85;;;2.33;;
10416;SDS011;62605;49.432;8.680;2023-07-31T19:03:17;6.82;;;2.38;;
10416;SDS011;62605;49.432;8.680;2023-07-31T19:05:44;6.20;;;2.60;;
10416;SDS011;62605;49.432;8.680;2023-07-31T19:08:12;3.22;;;2.38;;
10416;SDS011;62605;49.432;8.680;2023-07-31T19:10:39;4.57;;;2.03;;
10416;SDS011;62605;49.432;8.680;2023-07-31T19:13:06;3.58;;;2.20;;
10416;SDS011;62605;49.432;8.680;2023-07-31T19:15:34;7.03;;;2.63;;
10416;SDS011;62605;49.432;8.680;2023-07-31T19:18:01;5.55;;;2.50;;
10416;SDS011;62605;49.432;8.680;2023-07-31T19:20:29;3.42;;;2.10;;
10416;SDS011;62605;49.432;8.680;2023-07-31T19:22:56;4.43;;;2.33;;
10416;SDS011;62605;49.432;8.680;2023-07-31T19:25:25;4.13;;;2.50;;
10416;SDS011;62605;49.432;8.680;2023-07-31T19:27:52;3.83;;;2.20;;
10416;SDS011;62605;49.432;8.680;2023-07-31T19:30:19;6.55;;;2.28;;
10416;SDS011;62605;49.432;8.680;2023-07-31T19:32:46;4.25;;;2.20;;
10416;SDS011;62605;49.432;8.680;2023-07-31T19:35:14;3.63;;;2.25;;
10416;SDS011;62605;49.432;8.680;2023-07-31T19:37:42;5.40;;;2.20;;
10416;SDS011;62605;49.432;8.680;2023-07-31T19:40:09;3.60;;;2.33;;
10416;SDS011;62605;49.432;8.680;2023-07-31T19:42:38;5.30;;;2.40;;
10416;SDS011;62605;49.432;8.680;2023-07-31T19:45:05;3.72;;;2.08;;
10416;SDS011;62605;49.432;8.680;2023-07-31T19:47:33;4.38;;;2.47;;
10416;SDS011;62605;49.432;8.680;2023-07-31T19:50:00;2.88;;;2.30;;
10416;SDS011;62605;49.432;8.680;2023-07-31T19:52:28;4.45;;;2.42;;
10416;SDS011;62605;49.432;8.680;2023-07-31T19:54:55;2.65;;;2.13;;
10416;SDS011;62605;49.432;8.680;2023-07-31T19:57:22;2.60;;;2.08;;
10416;SDS011;62605;49.432;8.680;2023-07-31T19:59:51;4.43;;;2.40;;
10416;SDS011;62605;49.432;8.680;2023-07-31T20:02:17;2.72;;;2.00;;
10416;SDS011;62605;49.432;8.680;2023-07-31T20:04:44;4.47;;;2.13;;
10416;SDS011;62605;49.432;8.680;2023-07-31T20:07:11;6.30;;;1.95;;
10416;SDS011;62605;49.432;8.680;2023-07-31T20:09:38;2.97;;;1.77;;
10416;SDS011;62605;49.432;8.680;2023-07-31T20:12:06;2.50;;;1.77;;
10416;SDS011;62605;49.432;8.680;2023-07-31T20:14:34;4.63;;;2.13;;
10416;SDS011;62605;49.432;8.680;2023-07-31T20:17:02;3.47;;;1.90;;
10416;SDS011;62605;49.432;8.680;2023-07-31T20:19:30;4.18;;;1.95;;
10416;SDS011;62605;49.432;8.680;2023-07-31T20:21:58;3.55;;;2.00;;
10416;SDS011;62605;49.432;8.680;2023-07-31T20:24:25;4.78;;;2.05;;
10416;SDS011;62605;49.432;8.680;2023-07-31T20:26:52;2.33;;;1.75;;
10416;SDS011;62605;49.432;8.680;2023-07-31T20:29:19;3.88;;;1.88;;
10416;SDS011;62605;49.432;8.680;2023-07-31T20:31:46;4.20;;;2.13;;
10416;SDS011;62605;49.432;8.680;2023-07-31T20:34:15;4.00;;;2.33;;